Time;durP1;ratioP1;P1;durP2;ratioP2;P2;SDS_P1;SDS_P2;PMS_P1;PMS_P2;Temp;Humidity;BMP_temperature;BMP_pressure;BME280_temperature;BME280_humidity;BME280_pressure;Samples;Min_cycle;Max_cycle;Signal;HPM_P1;HPM_P2
2021/11/27 00:01:14;;;;;;;14.45;6.10;;;;;;;-1.90;100.00;93192.34;5027046;28;20045;-74
2021/11/27 00:03:40;;;;;;;11.07;5.25;;;;;;;-1.92;100.00;93184.88;5027858;28;20047;-74
2021/11/27 00:06:08;;;;;;;10.40;5.13;;;;;;;-1.90;100.00;93194.16;5024038;28;20144;-74
2021/11/27 00:08:34;;;;;;;13.38;5.97;;;;;;;-1.94;100.00;93186.94;5009858;28;20041;-74
2021/11/27 00:11:00;;;;;;;12.52;5.45;;;;;;;-1.91;100.00;93190.81;5010202;28;20104;-74
2021/11/27 00:13:26;;;;;;;12.23;5.57;;;;;;;-1.88;100.00;93179.22;5025493;28;20056;-74
2021/11/27 00:15:52;;;;;;;10.88;5.82;;;;;;;-1.88;100.00;93179.22;4990733;28;20049;-74
2021/11/27 00:18:21;;;;;;;11.98;5.70;;;;;;;-1.90;100.00;93176.13;5025609;28;20077;-74
2021/11/27 00:20:52;;;;;;;14.13;5.75;;;;;;;-1.83;100.00;93176.69;5027883;28;20045;-74
2021/11/27 00:23:18;;;;;;;11.07;5.22;;;;;;;-1.81;100.00;93174.63;5024823;28;20407;-74
2021/11/27 00:25:44;;;;;;;13.15;6.03;;;;;;;-1.78;100.00;93164.59;4998786;28;20045;-74
2021/11/27 00:28:11;;;;;;;11.68;5.32;;;;;;;-1.69;100.00;93161.56;5037084;28;20050;-74
2021/11/27 00:30:38;;;;;;;11.57;5.53;;;;;;;-1.69;100.00;93162.31;5032754;28;20570;-74
2021/11/27 00:33:04;;;;;;;9.30;4.95;;;;;;;-1.69;100.00;93161.56;5027137;28;20099;-74
2021/11/27 00:35:30;;;;;;;10.40;5.15;;;;;;;-1.69;100.00;93154.56;5027704;28;20045;-74
2021/11/27 00:37:57;;;;;;;9.77;4.82;;;;;;;-1.68;100.00;93153.56;5011834;28;20588;-74
2021/11/27 00:40:24;;;;;;;10.90;4.95;;;;;;;-1.68;100.00;93145.81;5026593;28;20053;-74
2021/11/27 00:42:52;;;;;;;9.48;4.28;;;;;;;-1.64;100.00;93144.31;5009391;28;20434;-74
2021/11/27 00:45:18;;;;;;;10.00;4.65;;;;;;;-1.64;100.00;93131.41;5039984;28;20445;-74
2021/11/27 00:47:48;;;;;;;11.02;4.65;;;;;;;-1.62;100.00;93131.91;5011972;28;20161;-73
2021/11/27 00:50:18;;;;;;;10.15;5.30;;;;;;;-1.59;100.00;93130.66;5012034;28;20060;-74
2021/11/27 00:52:44;;;;;;;11.27;4.93;;;;;;;-1.53;100.00;93129.63;5027631;28;20050;-74
2021/11/27 00:55:10;;;;;;;10.10;4.90;;;;;;;-1.52;100.00;93114.91;5028323;28;20045;-74
2021/11/27 00:57:37;;;;;;;11.77;5.18;;;;;;;-1.50;100.00;93118.03;5014756;28;20064;-74
2021/11/27 01:00:13;;;;;;;12.60;5.07;;;;;;;-1.48;100.00;93121.13;5027154;28;20042;-74
2021/11/27 01:02:40;;;;;;;10.23;5.25;;;;;;;-1.44;100.00;93127.34;5026957;28;20045;-74
2021/11/27 01:05:10;;;;;;;8.65;4.15;;;;;;;-1.42;100.00;93120.13;5022241;28;20061;-74
2021/11/27 01:07:37;;;;;;;8.73;4.38;;;;;;;-1.43;100.00;93123.75;5028573;28;20048;-74
2021/11/27 01:10:06;;;;;;;10.10;4.85;;;;;;;-1.43;100.00;93123.75;5030985;28;20045;-74
2021/11/27 01:12:32;;;;;;;9.68;4.90;;;;;;;-1.43;100.00;93118.56;5012665;28;20518;-74
2021/11/27 01:14:58;;;;;;;9.57;4.35;;;;;;;-1.42;100.00;93125.28;5030531;28;20128;-74
2021/11/27 01:17:24;;;;;;;9.93;4.65;;;;;;;-1.44;100.00;93114.44;5031632;28;20041;-74
2021/11/27 01:19:49;;;;;;;8.52;4.47;;;;;;;-1.44;100.00;93112.66;5041751;28;20094;-74
2021/11/27 01:22:18;;;;;;;7.65;4.13;;;;;;;-1.45;100.00;93105.94;5050711;28;20503;-74
2021/11/27 01:24:45;;;;;;;8.20;4.30;;;;;;;-1.40;100.00;93112.91;5046804;28;20945;-74
2021/11/27 01:27:11;;;;;;;9.40;4.18;;;;;;;-1.42;100.00;93102.84;5021708;28;20046;-74
2021/11/27 01:29:39;;;;;;;8.77;4.70;;;;;;;-1.34;100.00;93101.56;5020723;28;20053;-74
2021/11/27 01:32:07;;;;;;;10.30;4.43;;;;;;;-1.37;100.00;93102.06;5012676;28;20052;-74
2021/11/27 01:34:33;;;;;;;8.55;4.15;;;;;;;-1.35;100.00;93104.41;5030340;28;20539;-74
2021/11/27 01:36:59;;;;;;;8.25;4.18;;;;;;;-1.35;100.00;93094.88;5008470;28;20053;-74
2021/11/27 01:39:24;;;;;;;7.03;3.92;;;;;;;-1.33;100.00;93104.94;5000639;28;20041;-74
2021/11/27 01:41:50;;;;;;;8.38;3.90;;;;;;;-1.35;100.00;93110.34;5012717;28;20392;-74
2021/11/27 01:44:16;;;;;;;7.70;4.07;;;;;;;-1.36;100.00;93108.78;5030006;28;20079;-74
2021/11/27 01:46:42;;;;;;;8.73;4.13;;;;;;;-1.37;100.00;93117.56;5008849;28;20492;-74
2021/11/27 01:49:09;;;;;;;8.60;3.97;;;;;;;-1.41;100.00;93111.34;5028560;28;20060;-74
2021/11/27 01:51:36;;;;;;;8.75;4.10;;;;;;;-1.48;100.00;93110.81;5034802;28;20072;-74
2021/11/27 01:54:07;;;;;;;9.38;4.43;;;;;;;-1.37;100.00;93102.06;5029830;28;20048;-74
2021/11/27 01:56:50;;;;;;;9.23;3.83;;;;;;;-1.34;100.00;93096.41;5037423;28;20041;-74
2021/11/27 01:59:17;;;;;;;6.95;3.78;;;;;;;-1.40;100.00;93087.09;4998318;28;20044;-75
2021/11/27 02:01:44;;;;;;;8.80;3.92;;;;;;;-1.49;100.00;93088.66;5029895;28;20754;-75
2021/11/27 02:04:11;;;;;;;9.68;3.88;;;;;;;-1.51;100.00;93090.69;5029232;28;20046;-74
2021/11/27 02:06:40;;;;;;;8.32;3.67;;;;;;;-1.48;100.00;93085.81;5012622;28;20056;-74
2021/11/27 02:09:19;;;;;;;8.70;3.78;;;;;;;-1.35;100.00;93084.56;5028082;28;20045;-74
2021/11/27 02:11:45;;;;;;;8.10;4.10;;;;;;;-1.27;100.00;93084.03;5028538;28;20050;-74
2021/11/27 02:14:11;;;;;;;6.95;3.58;;;;;;;-1.26;100.00;93083.00;5027501;28;20042;-74
2021/11/27 02:16:39;;;;;;;7.60;3.83;;;;;;;-1.26;100.00;93077.84;5029367;28;20049;-74
2021/11/27 02:19:05;;;;;;;10.50;3.83;;;;;;;-1.25;100.00;93074.25;5031157;28;20793;-74
2021/11/27 02:21:30;;;;;;;6.90;3.33;;;;;;;-1.23;100.00;93072.19;5029789;28;20119;-74
2021/11/27 02:23:56;;;;;;;6.88;3.78;;;;;;;-1.25;100.00;93073.47;5009713;28;20049;-74
2021/11/27 02:26:26;;;;;;;7.15;3.75;;;;;;;-1.30;100.00;93066.50;5030136;28;20041;-74
2021/11/27 02:28:55;;;;;;;7.72;3.83;;;;;;;-1.23;100.00;93061.84;5028103;28;20045;-74
2021/11/27 02:31:22;;;;;;;7.10;3.60;;;;;;;-1.30;100.00;93045.84;5029346;28;20418;-74
2021/11/27 02:33:48;;;;;;;6.63;3.42;;;;;;;-1.35;100.00;93042.47;5029284;28;20052;-74
2021/11/27 02:36:14;;;;;;;8.40;3.65;;;;;;;-1.49;100.00;93044.78;5029140;28;20042;-74
2021/11/27 02:38:40;;;;;;;8.02;3.60;;;;;;;-1.52;100.00;93037.53;5011058;28;20850;-74
2021/11/27 02:41:06;;;;;;;7.97;4.05;;;;;;;-1.38;100.00;93033.44;5008190;28;20049;-74
2021/11/27 02:43:31;;;;;;;7.40;3.45;;;;;;;-1.35;100.00;93027.78;5029346;28;20509;-74
2021/11/27 02:45:58;;;;;;;7.32;3.78;;;;;;;-1.36;100.00;93026.22;5028385;28;20488;-74
2021/11/27 02:48:24;;;;;;;6.18;3.38;;;;;;;-1.17;100.00;93012.84;5009587;28;20046;-74
2021/11/27 02:50:49;;;;;;;8.63;3.60;;;;;;;-1.40;100.00;93009.72;5023914;28;20466;-75
2021/11/27 02:53:16;;;;;;;6.28;3.15;;;;;;;-1.10;100.00;93013.34;5008698;28;20045;-74
2021/11/27 02:55:43;;;;;;;6.13;3.08;;;;;;;-1.02;100.00;93010.28;5009756;28;20046;-74
2021/11/27 02:58:09;;;;;;;6.60;3.13;;;;;;;-1.01;100.00;93014.38;5015439;28;20499;-75
2021/11/27 03:00:35;;;;;;;6.35;3.35;;;;;;;-1.02;100.00;93010.28;5011379;28;20084;-74
2021/11/27 03:03:01;;;;;;;6.18;2.88;;;;;;;-1.02;100.00;92999.94;5028522;28;20041;-74
2021/11/27 03:05:26;;;;;;;6.97;3.20;;;;;;;-1.01;100.00;92996.31;5024569;28;20041;-74
2021/11/27 03:07:52;;;;;;;6.95;3.25;;;;;;;-1.02;100.00;92989.63;5035751;28;20375;-74
2021/11/27 03:10:19;;;;;;;7.05;3.25;;;;;;;-1.01;100.00;92996.31;5028409;28;20158;-75
2021/11/27 03:12:46;;;;;;;5.65;2.80;;;;;;;-1.02;100.00;92997.38;5024362;28;20091;-75
2021/11/27 03:15:14;;;;;;;6.70;2.90;;;;;;;-0.95;100.00;93003.03;5028680;28;20052;-74
2021/11/27 03:17:41;;;;;;;6.55;2.97;;;;;;;-0.93;100.00;93007.94;5027205;28;20045;-75
2021/11/27 03:20:08;;;;;;;6.00;3.42;;;;;;;-0.93;100.00;92993.22;5028009;28;20152;-75
2021/11/27 03:22:34;;;;;;;6.90;3.00;;;;;;;-0.92;100.00;92994.78;5027867;28;20041;-74
2021/11/27 03:25:00;;;;;;;5.22;3.00;;;;;;;-0.90;100.00;92997.84;5027926;28;20077;-75
2021/11/27 03:27:26;;;;;;;5.45;2.70;;;;;;;-0.82;100.00;92998.38;5022300;28;20042;-74
2021/11/27 03:29:51;;;;;;;8.70;3.08;;;;;;;-0.85;100.00;92994.50;5020002;28;20056;-75
2021/11/27 03:32:18;;;;;;;5.93;2.88;;;;;;;-0.80;100.00;92986.00;5027784;28;20430;-75
2021/11/27 03:34:45;;;;;;;5.80;3.20;;;;;;;-0.73;100.00;93002.75;5009510;28;20045;-75
2021/11/27 03:37:12;;;;;;;5.70;3.00;;;;;;;-0.70;100.00;92997.06;4999691;28;20037;-75
2021/11/27 03:39:38;;;;;;;6.05;3.10;;;;;;;-0.70;100.00;92993.72;5029446;28;20037;-75
2021/11/27 03:42:09;;;;;;;6.72;3.00;;;;;;;-0.69;100.00;92987.50;5010033;28;20053;-75
2021/11/27 03:44:35;;;;;;;5.30;2.83;;;;;;;-0.70;100.00;92985.97;5007062;28;20133;-75
2021/11/27 03:47:03;;;;;;;5.15;2.67;;;;;;;-0.69;100.00;92992.66;5015273;28;20418;-75
2021/11/27 03:49:30;;;;;;;5.38;2.67;;;;;;;-0.74;100.00;92990.09;5010660;28;20543;-75
2021/11/27 03:51:56;;;;;;;6.07;3.13;;;;;;;-0.69;100.00;92984.91;5027515;28;20388;-75
2021/11/27 03:54:23;;;;;;;5.80;3.05;;;;;;;-0.67;100.00;92988.03;5024692;28;20045;-75
2021/11/27 03:56:51;;;;;;;6.47;3.20;;;;;;;-0.66;100.00;92987.00;5027176;28;20037;-75
2021/11/27 03:59:18;;;;;;;6.38;2.90;;;;;;;-0.67;100.00;92984.69;5027292;28;20488;-75
2021/11/27 04:01:44;;;;;;;7.20;3.30;;;;;;;-0.63;100.00;92986.47;5026350;28;20049;-75
2021/11/27 04:04:10;;;;;;;6.60;3.25;;;;;;;-0.65;100.00;92991.13;5025447;28;20138;-75
2021/11/27 04:06:37;;;;;;;5.40;3.33;;;;;;;-0.63;100.00;92989.06;5026983;28;20053;-75
2021/11/27 04:09:06;;;;;;;5.80;3.13;;;;;;;-0.63;100.00;92980.50;5017630;28;20040;-75
2021/11/27 04:11:32;;;;;;;6.50;3.05;;;;;;;-0.64;100.00;92979.75;5027258;28;20037;-75
2021/11/27 04:13:57;;;;;;;6.22;3.40;;;;;;;-0.61;100.00;92983.63;5010806;28;20082;-75
2021/11/27 04:16:23;;;;;;;6.68;3.42;;;;;;;-0.61;100.00;92979.22;5019765;28;20076;-75
2021/11/27 04:18:49;;;;;;;6.60;3.60;;;;;;;-0.60;100.00;92991.13;5027329;28;20037;-75
2021/11/27 04:21:17;;;;;;;6.78;3.50;;;;;;;-0.61;99.79;92989.56;5027149;28;20088;-75
2021/11/27 04:23:43;;;;;;;6.78;3.22;;;;;;;-0.61;100.00;92989.56;5012335;28;20042;-75
2021/11/27 04:26:09;;;;;;;5.00;3.20;;;;;;;-0.63;100.00;92980.50;5023618;28;20557;-75
2021/11/27 04:28:34;;;;;;;6.60;3.63;;;;;;;-0.62;100.00;92988.00;5004835;28;20041;-76
2021/11/27 04:31:00;;;;;;;6.57;3.58;;;;;;;-0.66;100.00;92984.41;5026739;28;20099;-75
2021/11/27 04:33:26;;;;;;;6.35;3.13;;;;;;;-0.64;100.00;92981.56;5026822;28;20072;-75
2021/11/27 04:35:52;;;;;;;6.53;3.50;;;;;;;-0.63;100.00;92976.16;5029118;28;20109;-75
2021/11/27 04:38:18;;;;;;;7.38;3.50;;;;;;;-0.66;100.00;92976.66;5026184;28;20045;-75
2021/11/27 04:40:44;;;;;;;7.90;4.03;;;;;;;-0.67;100.00;92972.53;5026485;28;20053;-76
2021/11/27 04:43:09;;;;;;;8.98;3.65;;;;;;;-0.67;100.00;92977.69;5012402;28;20052;-75
2021/11/27 04:45:35;;;;;;;7.68;3.63;;;;;;;-0.67;100.00;92980.28;5030764;28;20044;-76
2021/11/27 04:48:01;;;;;;;7.97;3.75;;;;;;;-0.69;100.00;92977.16;5007291;28;20042;-76
2021/11/27 04:50:28;;;;;;;6.80;3.72;;;;;;;-0.68;100.00;92973.56;5013384;28;20033;-76
2021/11/27 04:52:54;;;;;;;6.55;3.83;;;;;;;-0.67;100.00;92976.94;5029191;28;20503;-76
2021/11/27 04:55:20;;;;;;;8.20;3.83;;;;;;;-0.65;100.00;92978.19;5030748;28;20052;-76
2021/11/27 04:57:46;;;;;;;8.10;4.20;;;;;;;-0.65;100.00;92978.19;5021931;28;20053;-76
2021/11/27 05:00:19;;;;;;;7.15;3.92;;;;;;;-0.65;100.00;92974.84;5019225;28;20045;-76
2021/11/27 05:02:44;;;;;;;7.63;3.67;;;;;;;-0.64;100.00;92969.41;5031979;28;20392;-76
2021/11/27 05:05:10;;;;;;;6.93;3.90;;;;;;;-0.63;100.00;92965.81;5030948;28;20083;-76
2021/11/27 05:07:36;;;;;;;8.18;3.95;;;;;;;-0.64;100.00;92959.09;5027845;28;20674;-76
2021/11/27 05:10:03;;;;;;;9.07;4.15;;;;;;;-0.59;100.00;92966.84;5030378;28;20045;-76
2021/11/27 05:12:28;;;;;;;9.25;4.18;;;;;;;-0.59;100.00;92977.16;5030346;28;20442;-76
2021/11/27 05:14:54;;;;;;;7.55;4.07;;;;;;;-0.57;100.00;92974.31;5030607;28;20120;-76
2021/11/27 05:17:19;;;;;;;8.32;4.15;;;;;;;-0.56;100.00;92974.06;5030066;28;20053;-76
2021/11/27 05:19:46;;;;;;;12.65;4.35;;;;;;;-0.51;100.00;92978.44;5030523;28;20127;-76
2021/11/27 05:22:12;;;;;;;8.23;4.13;;;;;;;-0.49;100.00;92970.41;5010828;28;20060;-76
2021/11/27 05:24:43;;;;;;;8.10;4.13;;;;;;;-0.55;100.00;92967.88;5012686;28;20042;-76
2021/11/27 05:27:11;;;;;;;9.27;4.68;;;;;;;-0.55;100.00;92973.03;5005952;28;20042;-76
2021/11/27 05:29:38;;;;;;;9.25;4.40;;;;;;;-0.51;100.00;92962.16;5011351;28;20129;-76
2021/11/27 05:32:05;;;;;;;8.70;4.50;;;;;;;-0.51;100.00;92957.00;5031290;28;20042;-76
2021/11/27 05:34:34;;;;;;;9.63;4.85;;;;;;;-0.45;100.00;92955.94;5030185;28;20053;-76
2021/11/27 05:37:04;;;;;;;8.43;4.57;;;;;;;-0.47;100.00;92947.69;5008674;28;20195;-76
2021/11/27 05:39:30;;;;;;;8.20;4.40;;;;;;;-0.58;100.00;92952.88;5027011;28;20048;-76
2021/11/27 05:41:56;;;;;;;9.80;4.57;;;;;;;-0.43;100.00;92951.28;5028875;28;20045;-76
2021/11/27 05:44:22;;;;;;;13.00;5.10;;;;;;;-0.41;100.00;92951.81;5030375;28;20474;-76
2021/11/27 05:46:48;;;;;;;9.18;4.88;;;;;;;-0.38;100.00;92959.03;5028343;28;20048;-76
2021/11/27 05:49:14;;;;;;;8.73;4.35;;;;;;;-0.35;100.00;92950.75;5030606;28;20046;-76
2021/11/27 05:51:40;;;;;;;7.93;4.22;;;;;;;-0.33;100.00;92953.06;5029676;28;20045;-76
2021/11/27 05:54:05;;;;;;;8.55;4.35;;;;;;;-0.31;100.00;92956.94;5028998;28;20056;-76
2021/11/27 05:56:31;;;;;;;7.15;3.50;;;;;;;-0.34;100.00;92941.97;5023205;28;20073;-76
2021/11/27 05:58:57;;;;;;;8.77;4.47;;;;;;;-0.32;100.00;92944.28;5028634;28;20056;-76
2021/11/27 06:01:23;;;;;;;9.02;4.75;;;;;;;-0.32;100.00;92944.28;5029626;28;20045;-76
2021/11/27 06:03:49;;;;;;;10.02;4.70;;;;;;;-0.38;100.00;92946.09;5029710;28;20449;-77
2021/11/27 06:06:14;;;;;;;12.20;4.90;;;;;;;-0.33;100.00;92943.50;5027619;28;20120;-77
2021/11/27 06:08:40;;;;;;;8.52;4.43;;;;;;;-0.30;100.00;92945.56;5026632;28;20163;-77
2021/11/27 06:11:05;;;;;;;7.35;4.00;;;;;;;-0.28;100.00;92951.22;5029331;28;20116;-77
2021/11/27 06:13:31;;;;;;;7.65;4.10;;;;;;;-0.24;100.00;92952.25;5010453;28;20041;-77
2021/11/27 06:15:57;;;;;;;9.73;4.32;;;;;;;-0.16;100.00;92957.91;5008265;28;20037;-77
2021/11/27 06:18:22;;;;;;;7.90;4.00;;;;;;;-0.15;100.00;92964.63;5030200;28;20148;-77
2021/11/27 06:20:48;;;;;;;8.70;4.00;;;;;;;-0.15;100.00;92955.06;5028742;28;20047;-77
2021/11/27 06:23:14;;;;;;;6.78;3.45;;;;;;;-0.17;100.00;92967.50;5029454;28;20045;-77
2021/11/27 06:25:39;;;;;;;8.15;4.15;;;;;;;-0.16;100.00;92970.84;5023509;28;20719;-78
2021/11/27 06:28:05;;;;;;;8.10;4.00;;;;;;;-0.21;100.00;92979.41;5028686;28;20052;-77
2021/11/27 06:30:31;;;;;;;9.02;4.43;;;;;;;-0.26;100.00;92985.34;5028913;28;20044;-77
2021/11/27 06:32:56;;;;;;;8.00;4.10;;;;;;;-0.35;100.00;92986.91;5029164;28;20490;-77
2021/11/27 06:35:22;;;;;;;8.38;4.47;;;;;;;-0.31;100.00;92987.94;5028354;28;20120;-77
2021/11/27 06:37:47;;;;;;;7.88;4.15;;;;;;;-0.46;100.00;92987.97;5026879;28;20099;-77
2021/11/27 06:40:13;;;;;;;8.18;3.92;;;;;;;-0.44;100.00;92999.59;5028682;28;20080;-78
2021/11/27 06:42:39;;;;;;;7.22;3.78;;;;;;;-0.33;100.00;93000.38;5028516;28;20030;-77
2021/11/27 06:45:05;;;;;;;7.50;4.10;;;;;;;-0.38;100.00;93008.13;5028814;28;20044;-78
2021/11/27 06:47:31;;;;;;;9.65;4.13;;;;;;;-0.44;100.00;93011.75;5022743;28;20057;-78
2021/11/27 06:49:56;;;;;;;8.55;4.03;;;;;;;-0.44;100.00;93019.50;5028991;28;20120;-77
2021/11/27 06:52:22;;;;;;;9.18;4.38;;;;;;;-0.44;100.00;93029.84;5031252;28;20564;-78
2021/11/27 06:54:48;;;;;;;7.03;3.97;;;;;;;-0.43;100.00;93032.16;5024438;28;20462;-78
2021/11/27 06:57:14;;;;;;;7.78;3.72;;;;;;;-0.32;100.00;93037.31;5010015;28;20056;-78
2021/11/27 06:59:40;;;;;;;6.88;3.55;;;;;;;-0.38;100.00;93064.97;5010821;28;20046;-78
2021/11/27 07:02:06;;;;;;;8.55;4.22;;;;;;;-0.42;100.00;93056.19;5027366;28;20042;-78
2021/11/27 07:04:32;;;;;;;8.82;4.28;;;;;;;-0.35;100.00;93064.44;5028277;28;20045;-78
2021/11/27 07:06:57;;;;;;;8.77;4.10;;;;;;;-0.28;100.00;93064.94;5022392;28;20470;-78
2021/11/27 07:09:23;;;;;;;7.15;3.85;;;;;;;0.01;100.00;93058.44;5028656;28;20079;-78
2021/11/27 07:11:49;;;;;;;7.60;4.13;;;;;;;-0.15;100.00;93060.28;5001890;28;20045;-78
2021/11/27 07:14:16;;;;;;;8.70;4.03;;;;;;;-0.24;100.00;93065.97;5025177;28;20041;-78
2021/11/27 07:16:41;;;;;;;8.82;4.43;;;;;;;-0.26;100.00;93057.72;5026953;28;20049;-78
2021/11/27 07:19:07;;;;;;;9.00;4.35;;;;;;;-0.15;100.00;93058.47;5025190;28;20046;-79
2021/11/27 07:21:33;;;;;;;8.88;4.43;;;;;;;-0.09;100.00;93056.66;5028489;28;20048;-78
2021/11/27 07:23:59;;;;;;;8.75;4.70;;;;;;;-0.30;100.00;93064.44;5018652;28;20479;-78
2021/11/27 07:26:24;;;;;;;9.82;4.50;;;;;;;-0.29;100.00;93071.16;5025746;28;20539;-78
2021/11/27 07:28:51;;;;;;;7.35;4.30;;;;;;;-0.24;100.00;93053.06;5024198;28;20053;-78
2021/11/27 07:31:17;;;;;;;8.85;4.28;;;;;;;-0.07;100.00;93037.25;5010295;28;20111;-78
2021/11/27 07:33:43;;;;;;;8.32;4.22;;;;;;;0.03;100.00;93044.22;5003666;28;20076;-78
2021/11/27 07:36:09;;;;;;;7.85;4.20;;;;;;;0.02;100.00;93036.72;5024370;28;20042;-78
2021/11/27 07:38:36;;;;;;;8.30;4.13;;;;;;;-0.06;100.00;93053.53;5028185;28;20049;-78
2021/11/27 07:41:04;;;;;;;7.30;4.05;;;;;;;-0.29;100.00;93050.47;5028312;28;20041;-78
2021/11/27 07:43:30;;;;;;;8.55;4.40;;;;;;;-0.37;100.00;93056.19;5027919;28;20099;-78
2021/11/27 07:45:56;;;;;;;10.88;4.85;;;;;;;-0.39;100.00;93058.25;5026720;28;20037;-77
2021/11/27 07:48:24;;;;;;;9.68;4.50;;;;;;;-0.35;100.00;93054.13;5028709;28;20415;-78
2021/11/27 07:50:49;;;;;;;8.15;4.30;;;;;;;-0.32;100.00;93058.75;5027228;28;20692;-78
2021/11/27 07:53:15;;;;;;;7.93;4.18;;;;;;;-0.28;100.00;93064.94;5010290;28;20053;-78
2021/11/27 07:55:41;;;;;;;7.18;3.80;;;;;;;-0.12;100.00;93067.50;5027521;28;20041;-78
2021/11/27 07:58:06;;;;;;;11.32;4.78;;;;;;;0.04;100.00;93071.59;5022246;28;20044;-78
2021/11/27 08:00:32;;;;;;;8.18;4.03;;;;;;;0.09;100.00;93068.25;5002265;28;20037;-78
2021/11/27 08:02:57;;;;;;;8.38;4.22;;;;;;;0.03;100.00;93075.25;5029102;28;20045;-78
2021/11/27 08:05:23;;;;;;;11.85;6.38;;;;;;;0.14;100.00;93076.75;5027707;28;20041;-78
2021/11/27 08:07:48;;;;;;;8.02;4.88;;;;;;;0.20;100.00;93090.44;5000584;28;20100;-79
2021/11/27 08:10:15;;;;;;;10.52;5.57;;;;;;;0.20;100.00;93090.44;5005451;28;20079;-78
2021/11/27 08:12:40;;;;;;;9.27;4.72;;;;;;;0.06;100.00;93085.06;5027911;28;20053;-78
2021/11/27 08:15:08;;;;;;;9.07;4.57;;;;;;;0.02;100.00;93085.84;5004465;28;20042;-78
2021/11/27 08:17:35;;;;;;;8.13;4.53;;;;;;;0.19;100.00;93085.53;5006782;28;20045;-76
2021/11/27 08:20:04;;;;;;;9.48;4.40;;;;;;;0.30;100.00;93085.25;5026566;28;20508;-78
2021/11/27 08:22:30;;;;;;;7.32;3.97;;;;;;;0.24;100.00;93090.69;5024289;28;20045;-79
2021/11/27 08:24:56;;;;;;;8.90;4.25;;;;;;;0.24;100.00;93090.69;5024848;28;20069;-79
2021/11/27 08:27:23;;;;;;;8.73;4.72;;;;;;;0.28;100.00;93092.47;5004398;28;20088;-79
2021/11/27 08:29:49;;;;;;;11.05;4.15;;;;;;;0.24;100.00;93085.50;5026059;28;20051;-79
2021/11/27 08:32:15;;;;;;;10.48;3.90;;;;;;;0.17;100.00;93091.75;5026889;28;20589;-78
2021/11/27 08:34:41;;;;;;;10.30;4.65;;;;;;;0.14;100.00;93097.44;5026871;28;20050;-79
2021/11/27 08:37:06;;;;;;;10.73;4.95;;;;;;;0.22;100.00;93090.94;5018841;28;20046;-78
2021/11/27 08:39:32;;;;;;;8.52;4.30;;;;;;;0.22;100.00;93097.94;5026279;28;20049;-78
2021/11/27 08:41:58;;;;;;;9.23;4.80;;;;;;;0.13;100.00;93111.41;5026538;28;20463;-78
2021/11/27 08:44:24;;;;;;;9.60;4.93;;;;;;;0.35;100.00;93112.91;5026564;28;20132;-78
2021/11/27 08:46:49;;;;;;;10.45;4.40;;;;;;;0.40;100.00;93105.09;5024101;28;20419;-78
2021/11/27 08:49:15;;;;;;;13.88;6.43;;;;;;;0.40;100.00;93115.47;5026691;28;20045;-78
2021/11/27 08:51:42;;;;;;;12.63;5.45;;;;;;;0.41;100.00;93117.00;5004515;28;20178;-78
2021/11/27 08:54:09;;;;;;;8.43;4.55;;;;;;;0.41;100.00;93111.84;5025407;28;20049;-78
2021/11/27 08:56:35;;;;;;;12.73;4.80;;;;;;;0.39;100.00;93108.75;5026102;28;20050;-77
2021/11/27 08:59:01;;;;;;;9.45;4.85;;;;;;;0.36;100.00;93109.28;5022930;28;20050;-78
2021/11/27 09:01:27;;;;;;;9.98;4.63;;;;;;;0.44;100.00;93126.84;5008320;28;20065;-77
2021/11/27 09:03:53;;;;;;;9.88;5.38;;;;;;;0.34;100.00;93121.69;5023744;28;20072;-78
2021/11/27 09:06:19;;;;;;;11.48;5.07;;;;;;;0.21;100.00;93111.91;5025822;28;20065;-78
2021/11/27 09:08:45;;;;;;;8.30;4.22;;;;;;;0.43;100.00;93129.69;5026732;28;20053;-78
2021/11/27 09:11:14;;;;;;;8.68;4.45;;;;;;;0.28;100.00;93127.94;5025498;28;20046;-76
2021/11/27 09:13:40;;;;;;;10.88;5.15;;;;;;;0.24;100.00;93132.84;5010025;28;20410;-74
2021/11/27 09:16:07;;;;;;;10.10;5.10;;;;;;;0.20;100.00;93141.41;5024644;28;20034;-76
2021/11/27 09:18:33;;;;;;;10.88;5.32;;;;;;;0.37;100.00;93147.03;5015442;28;20045;-74
2021/11/27 09:20:59;;;;;;;10.90;4.95;;;;;;;0.61;100.00;93146.47;5025780;28;20414;-76
2021/11/27 09:23:25;;;;;;;12.75;5.47;;;;;;;0.71;100.00;93146.41;5001718;28;20121;-76
2021/11/27 09:25:51;;;;;;;9.52;5.07;;;;;;;0.73;100.00;93149.50;5021103;28;20048;-74
2021/11/27 09:28:17;;;;;;;10.48;4.75;;;;;;;0.75;100.00;93146.63;5026628;28;20044;-76
2021/11/27 09:30:43;;;;;;;9.88;4.32;;;;;;;0.74;100.00;93151.06;5012028;28;20050;-76
2021/11/27 09:33:08;;;;;;;8.32;4.80;;;;;;;0.70;100.00;93160.38;5028465;28;20054;-75
2021/11/27 09:35:34;;;;;;;11.43;4.80;;;;;;;0.48;100.00;93158.16;5028684;28;20562;-76
2021/11/27 09:38:00;;;;;;;7.85;4.38;;;;;;;0.48;100.00;93153.72;5019506;28;20069;-77
2021/11/27 09:40:25;;;;;;;9.75;4.50;;;;;;;0.70;100.00;93155.22;5029860;28;20034;-78
2021/11/27 09:42:53;;;;;;;9.57;4.30;;;;;;;0.77;100.00;93160.88;5010171;28;20594;-76
2021/11/27 09:45:24;;;;;;;10.32;4.85;;;;;;;0.79;100.00;93164.00;5026735;28;20047;-76
2021/11/27 09:47:52;;;;;;;8.80;4.25;;;;;;;0.78;100.00;93175.38;5013020;28;20512;-75
2021/11/27 09:50:19;;;;;;;18.92;7.93;;;;;;;0.72;100.00;93181.63;5027609;28;20720;-74
2021/11/27 09:52:47;;;;;;;9.32;4.15;;;;;;;0.69;100.00;93182.16;5028603;28;20079;-75
2021/11/27 09:55:16;;;;;;;9.05;4.95;;;;;;;0.66;100.00;93167.94;5007707;28;20033;-76
2021/11/27 09:57:42;;;;;;;14.68;6.13;;;;;;;0.70;100.00;93165.56;5023485;28;20092;-75
2021/11/27 10:00:08;;;;;;;8.05;3.83;;;;;;;0.69;100.00;93158.84;5022610;28;20057;-76
2021/11/27 10:02:34;;;;;;;7.13;3.50;;;;;;;0.70;100.00;93168.16;5028721;28;20037;-74
2021/11/27 10:05:00;;;;;;;10.65;4.28;;;;;;;0.74;100.00;93174.34;5025985;28;20065;-76
2021/11/27 10:07:27;;;;;;;9.13;4.80;;;;;;;0.73;100.00;93165.03;5002002;28;20042;-76
2021/11/27 10:09:52;;;;;;;10.02;5.10;;;;;;;0.73;100.00;93170.22;5028454;28;20057;-75
2021/11/27 10:12:20;;;;;;;7.80;4.00;;;;;;;0.76;100.00;93164.53;5028950;28;20412;-75
2021/11/27 10:14:46;;;;;;;7.88;4.00;;;;;;;0.83;100.00;93165.00;5027889;28;20049;-77
2021/11/27 10:17:17;;;;;;;10.02;4.05;;;;;;;0.88;100.00;93161.63;5029054;28;20064;-77
2021/11/27 10:19:42;;;;;;;8.75;4.35;;;;;;;0.89;100.00;93159.78;5027625;28;20045;-77
2021/11/27 10:22:10;;;;;;;9.82;4.65;;;;;;;0.91;100.00;93174.03;5027025;28;20050;-77
2021/11/27 10:24:36;;;;;;;7.13;4.30;;;;;;;0.89;100.00;93168.34;5027372;28;20099;-75
2021/11/27 10:27:15;;;;;;;8.20;4.07;;;;;;;0.95;100.00;93169.88;5025222;28;20045;-76
2021/11/27 10:29:41;;;;;;;6.25;3.03;;;;;;;0.98;100.00;93171.16;5024878;28;20045;-76
2021/11/27 10:32:15;;;;;;;9.13;4.20;;;;;;;1.09;100.00;93162.28;5027924;28;20042;-76
2021/11/27 10:34:48;;;;;;;;;;;;;;;1.23;100.00;93172.06;5018095;28;20411;-75
2021/11/27 10:37:25;;;;;;;5.80;3.15;;;;;;;1.25;100.00;93170.75;5005821;28;19925;-76
2021/11/27 10:40:13;;;;;;;5.47;3.00;;;;;;;1.26;100.00;93166.34;5010290;28;20048;-76
2021/11/27 10:43:00;;;;;;;6.75;3.10;;;;;;;1.23;100.00;93164.28;5025808;28;20045;-76
2021/11/27 10:45:38;;;;;;;5.35;3.10;;;;;;;1.24;100.00;93168.44;5017704;28;20515;-76
2021/11/27 10:48:14;;;;;;;7.15;3.08;;;;;;;1.20;100.00;93158.59;5025750;28;20037;-76
2021/11/27 10:50:52;;;;;;;6.88;3.33;;;;;;;1.26;100.00;93166.34;5022493;28;20057;-76
2021/11/27 10:53:21;;;;;;;17.35;6.00;;;;;;;1.24;100.00;93163.25;5021771;28;20099;-76
2021/11/27 10:55:47;;;;;;;14.80;5.13;;;;;;;1.18;100.00;93162.50;5009234;28;20049;-76
2021/11/27 10:58:14;;;;;;;10.35;4.90;;;;;;;1.21;100.00;93165.31;5028150;28;20056;-76
2021/11/27 11:00:50;;;;;;;11.10;4.95;;;;;;;1.23;100.00;93162.47;5028898;28;20057;-76
2021/11/27 11:03:35;;;;;;;8.82;4.13;;;;;;;1.23;100.00;93159.13;5026323;28;20049;-77
2021/11/27 11:06:18;;;;;;;11.23;5.55;;;;;;;1.28;100.00;93172.81;5025744;28;20057;-76
2021/11/27 11:08:44;;;;;;;7.78;4.60;;;;;;;1.34;100.00;93163.19;5028567;28;20123;-76
2021/11/27 11:11:20;;;;;;;8.75;3.33;;;;;;;1.35;100.00;93164.72;5029734;28;20050;-77
2021/11/27 11:13:56;;;;;;;7.32;4.05;;;;;;;1.37;100.00;93167.84;5030192;28;20124;-76
2021/11/27 11:16:25;;;;;;;8.48;4.07;;;;;;;1.43;100.00;93169.34;5027187;28;20034;-75
2021/11/27 11:18:52;;;;;;;7.15;3.17;;;;;;;1.47;100.00;93172.19;5028246;28;20045;-75
2021/11/27 11:21:19;;;;;;;6.97;3.58;;;;;;;1.46;100.00;93168.81;5029238;28;20045;-75
2021/11/27 11:23:45;;;;;;;6.43;3.25;;;;;;;1.43;100.00;93164.16;5029432;28;20495;-75
2021/11/27 11:26:20;;;;;;;5.65;3.08;;;;;;;1.40;100.00;93167.28;5004615;28;20049;-74